createdAt,value
2022-08-26T00:01:32.220Z,80.20
2022-08-26T00:11:36.599Z,80.80
2022-08-26T00:21:38.293Z,81.10
2022-08-26T00:31:40.992Z,82.00
2022-08-26T00:41:43.077Z,82.70
2022-08-26T00:51:50.829Z,83.40
2022-08-26T01:01:53.266Z,83.90
2022-08-26T01:11:57.276Z,84.60
2022-08-26T01:22:05.287Z,85.10
2022-08-26T01:32:10.710Z,85.80
2022-08-26T01:42:14.616Z,86.40
2022-08-26T01:52:22.609Z,87.30
2022-08-26T02:02:26.402Z,87.90
2022-08-26T02:12:28.290Z,88.30
2022-08-26T02:22:31.444Z,88.90
2022-08-26T02:32:33.695Z,89.20
2022-08-26T02:42:37.450Z,89.60
2022-08-26T02:52:39.156Z,90.10
2022-08-26T03:02:41.098Z,90.40
2022-08-26T03:12:47.462Z,90.60
2022-08-26T03:22:53.192Z,90.90
2022-08-26T03:32:58.109Z,91.00
2022-08-26T03:43:01.075Z,91.10
2022-08-26T03:53:04.284Z,91.30
2022-08-26T04:03:10.013Z,91.50
2022-08-26T04:13:12.234Z,91.50
2022-08-26T04:23:14.722Z,91.70
2022-08-26T04:33:19.679Z,91.90
2022-08-26T04:43:34.457Z,92.00
2022-08-26T04:53:36.561Z,91.90
2022-08-26T05:03:38.518Z,92.40
2022-08-26T05:13:43.002Z,92.60
2022-08-26T05:23:44.707Z,92.70
2022-08-26T05:33:46.711Z,92.80
2022-08-26T05:43:48.436Z,92.70
2022-08-26T05:53:54.649Z,92.50
2022-08-26T06:04:01.903Z,92.20
2022-08-26T06:14:05.997Z,92.10
2022-08-26T06:24:28.865Z,91.90
2022-08-26T06:34:30.959Z,91.70
2022-08-26T06:44:32.847Z,91.30
2022-08-26T06:54:34.839Z,90.90
2022-08-26T07:04:36.520Z,90.70
2022-08-26T07:14:38.471Z,90.30
2022-08-26T07:24:42.449Z,90.00
2022-08-26T07:34:45.567Z,89.80
2022-08-26T07:44:47.759Z,89.50
2022-08-26T07:54:49.658Z,89.30
2022-08-26T08:04:52.252Z,89.10
2022-08-26T08:14:54.338Z,88.60
2022-08-26T08:24:56.735Z,88.10
2022-08-26T08:34:59.344Z,87.60
2022-08-26T08:45:10.615Z,87.00
2022-08-26T08:55:18.135Z,86.80
2022-08-26T09:05:34.225Z,86.10
2022-08-26T09:15:41.879Z,85.40
2022-08-26T09:36:18.663Z,84.10
2022-08-26T09:46:28.326Z,83.00
2022-08-26T09:56:33.130Z,81.90
2022-08-26T10:06:43.417Z,80.40
2022-08-26T10:16:54.466Z,79.20
2022-08-26T10:27:07.684Z,77.80
2022-08-26T10:37:20.455Z,75.60
2022-08-26T10:47:33.263Z,73.80
2022-08-26T10:57:52.964Z,71.50
2022-08-26T11:08:20.475Z,69.20
2022-08-26T11:18:42.955Z,67.00
2022-08-26T11:28:45.976Z,64.70
2022-08-26T11:38:49.020Z,63.10
2022-08-26T11:48:52.074Z,61.40
2022-08-26T11:58:57.253Z,59.90
2022-08-26T12:09:02.816Z,59.40
2022-08-26T12:19:27.648Z,58.40
2022-08-26T12:29:29.348Z,57.50
2022-08-26T12:39:36.242Z,57.60
2022-08-26T12:49:39.622Z,58.40
2022-08-26T12:59:41.510Z,59.00
2022-08-26T13:09:43.178Z,61.40
2022-08-26T13:19:46.063Z,64.40
2022-08-26T13:29:47.881Z,74.60
2022-08-26T13:39:51.077Z,83.10
2022-08-26T13:49:52.959Z,89.50
2022-08-26T13:59:56.482Z,92.50
2022-08-26T14:09:58.219Z,93.80
2022-08-26T14:19:59.918Z,95.10
2022-08-26T14:30:01.594Z,95.90
2022-08-26T14:40:06.054Z,95.40
2022-08-26T14:50:08.122Z,95.70
2022-08-26T15:00:10.505Z,95.80
2022-08-26T15:10:14.385Z,96.10
2022-08-26T15:20:16.539Z,96.10
2022-08-26T15:30:18.421Z,96.10
2022-08-26T15:40:22.085Z,95.30
2022-08-26T15:50:25.382Z,94.60
2022-08-26T16:00:28.177Z,93.70
2022-08-26T16:10:31.051Z,92.40
2022-08-26T16:20:34.659Z,91.00
2022-08-26T16:30:36.315Z,90.20
2022-08-26T16:40:38.675Z,90.60
2022-08-26T16:50:41.881Z,90.90
2022-08-26T17:00:45.368Z,90.80
2022-08-26T17:10:47.053Z,90.70
2022-08-26T17:20:49.353Z,90.70
2022-08-26T17:30:51.048Z,90.80
2022-08-26T17:40:52.874Z,90.50
2022-08-26T17:50:54.792Z,89.70
2022-08-26T18:00:56.661Z,88.90
2022-08-26T18:10:59.051Z,88.20
2022-08-26T18:21:01.884Z,88.80
2022-08-26T18:31:03.841Z,90.00
2022-08-26T18:41:05.677Z,89.50
2022-08-26T18:51:07.983Z,87.30
2022-08-26T19:01:15.403Z,84.90
2022-08-26T19:11:31.617Z,85.80
2022-08-26T19:21:35.757Z,87.20
2022-08-26T19:31:37.412Z,87.10
2022-08-26T19:41:40.083Z,86.90
2022-08-26T19:51:41.997Z,86.70
2022-08-26T20:01:43.840Z,87.10
2022-08-26T20:11:45.524Z,87.90
2022-08-26T20:21:47.268Z,89.20
2022-08-26T20:31:49.477Z,90.00
2022-08-26T20:41:51.347Z,90.50
2022-08-26T20:51:53.954Z,90.90
2022-08-26T21:01:55.838Z,93.00
2022-08-26T21:11:57.578Z,93.40
2022-08-26T21:21:59.588Z,93.80
2022-08-26T21:32:01.256Z,94.00
2022-08-26T21:42:03.683Z,94.10
2022-08-26T21:52:05.460Z,94.20
2022-08-26T22:02:07.496Z,94.10
2022-08-26T22:12:11.438Z,94.10
2022-08-26T22:22:13.692Z,94.20
2022-08-26T22:32:15.536Z,94.10
2022-08-26T22:42:17.248Z,94.00
2022-08-26T22:52:18.935Z,94.00
2022-08-26T23:02:20.612Z,94.20
2022-08-26T23:12:22.571Z,94.30
2022-08-26T23:22:25.045Z,94.30
2022-08-26T23:32:26.831Z,94.50
2022-08-26T23:42:29.038Z,94.60
2022-08-26T23:52:50.413Z,94.80
